createdAt,value
2018-11-13T04:06:35.883Z,11.26
2018-11-13T04:07:35.816Z,11.72
2018-11-13T04:08:35.774Z,11.75
2018-11-13T04:09:35.733Z,11.81
2018-11-13T04:10:35.686Z,11.84
2018-11-13T04:11:35.645Z,11.83
2018-11-13T04:12:35.603Z,12.02
2018-11-13T04:13:35.559Z,12.02
2018-11-13T04:14:35.529Z,12.00
2018-11-13T04:15:35.484Z,12.00
2018-11-13T04:16:35.444Z,11.99
2018-11-13T04:17:35.404Z,11.95
2018-11-13T04:18:35.355Z,11.99
2018-11-13T04:19:35.318Z,11.99
2018-11-13T04:20:35.278Z,11.88
2018-11-13T04:21:35.239Z,11.94
2018-11-13T04:22:35.204Z,11.97
2018-11-13T04:23:35.161Z,12.02
2018-11-13T04:24:35.121Z,11.97
2018-11-13T04:25:35.077Z,12.00
2018-11-13T04:26:35.045Z,12.06
2018-11-13T04:27:35.009Z,12.00
2018-11-13T04:28:34.964Z,12.00
2018-11-13T04:29:34.925Z,12.04
2018-11-13T04:30:34.935Z,11.94
2018-11-13T04:31:34.853Z,12.00
2018-11-13T04:32:34.810Z,12.03
2018-11-13T04:33:34.762Z,12.07
2018-11-13T04:34:34.730Z,11.62
2018-11-13T04:35:34.689Z,11.41
2018-11-13T04:36:34.650Z,11.48
2018-11-13T04:37:34.611Z,11.35
2018-11-13T04:38:34.567Z,11.95
2018-11-13T04:39:34.529Z,11.97
2018-11-13T04:40:34.493Z,12.07
2018-11-13T04:41:34.516Z,12.06
2018-11-13T04:42:41.477Z,11.97
2018-11-13T04:43:34.477Z,11.47
2018-11-13T04:44:39.065Z,11.84
2018-11-13T04:45:35.879Z,12.04
2018-11-13T04:47:35.090Z,11.87
2018-11-13T04:48:37.245Z,11.62
2018-11-13T04:49:35.155Z,11.83
2018-11-13T10:25:10.693Z,13.67
2018-11-13T10:26:20.624Z,13.78
2018-11-13T10:30:51.155Z,13.75
2018-11-13T10:31:50.650Z,13.78
2018-11-13T10:32:37.661Z,13.68
2018-11-13T10:33:36.956Z,13.67
2018-11-13T10:41:03.227Z,13.53
2018-11-13T10:42:03.052Z,13.57
2018-11-13T10:43:03.022Z,13.68
2018-11-13T10:44:02.968Z,13.63
2018-11-13T10:45:02.930Z,13.65
2018-11-13T10:46:02.902Z,13.54
2018-11-13T10:47:02.860Z,13.62
2018-11-13T10:48:02.817Z,13.65
2018-11-13T10:49:02.796Z,13.63
2018-11-13T10:50:02.747Z,13.65
2018-11-13T10:51:02.702Z,13.63
2018-11-13T10:52:02.664Z,13.71
2018-11-13T10:53:02.624Z,13.83
2018-11-13T10:54:02.594Z,13.83
2018-11-13T10:55:02.555Z,13.77
2018-11-13T10:56:02.517Z,13.78
2018-11-13T10:57:02.479Z,13.59
2018-11-13T10:58:02.434Z,13.96
2018-11-13T10:59:02.398Z,13.95
2018-11-13T11:00:02.362Z,13.97
2018-11-13T11:01:02.327Z,13.95
2018-11-13T11:02:02.284Z,14.05
2018-11-13T11:03:02.434Z,14.05
2018-11-13T11:04:02.210Z,14.05
2018-11-13T11:05:02.169Z,14.04
2018-11-13T11:06:02.139Z,14.25
2018-11-13T11:07:02.098Z,14.22
2018-11-13T11:08:02.069Z,14.28
2018-11-13T11:09:02.027Z,14.26
2018-11-13T11:10:01.987Z,14.29
2018-11-13T11:11:01.949Z,14.28
2018-11-13T11:12:01.910Z,14.32
2018-11-13T11:13:01.929Z,14.33
2018-11-13T11:14:02.029Z,14.40
2018-11-13T11:15:01.802Z,14.45
2018-11-13T11:16:01.763Z,14.36
2018-11-13T11:17:01.721Z,14.23
2018-11-13T11:18:01.773Z,13.60
2018-11-13T11:19:01.734Z,13.71
2018-11-13T11:20:01.614Z,14.12
2018-11-13T11:21:01.580Z,14.10
2018-11-13T11:22:01.537Z,14.08
2018-11-13T11:23:01.528Z,14.04
2018-11-13T11:24:01.550Z,13.95
2018-11-13T11:25:01.436Z,13.95
2018-11-13T11:26:01.394Z,14.08
2018-11-13T11:27:01.355Z,14.10
2018-11-13T11:28:01.327Z,14.18
2018-11-13T11:29:01.284Z,14.03
2018-11-13T11:30:01.238Z,13.90
2018-11-13T11:31:01.297Z,13.20
2018-11-13T11:32:01.175Z,13.89
2018-11-13T11:33:01.153Z,13.78
2018-11-13T11:34:01.091Z,13.89
2018-11-13T11:35:01.054Z,13.54
2018-11-13T11:36:01.016Z,13.72
2018-11-13T11:37:00.976Z,13.95
2018-11-13T11:38:00.946Z,13.83
2018-11-13T11:39:01.009Z,13.77
2018-11-13T11:40:00.869Z,13.87
2018-11-13T11:41:00.882Z,13.92
2018-11-13T11:42:00.794Z,14.03
2018-11-13T11:43:00.756Z,13.93
2018-11-13T11:44:00.720Z,14.00
2018-11-13T11:45:00.682Z,13.97
2018-11-13T11:46:00.649Z,13.90
2018-11-13T11:47:00.610Z,13.92
2018-11-13T11:48:00.570Z,13.79
2018-11-13T11:49:00.543Z,13.81
2018-11-13T11:50:00.500Z,13.78
2018-11-13T11:51:00.461Z,13.78
2018-11-13T11:52:00.423Z,13.65
2018-11-13T11:53:00.388Z,13.71
2018-11-13T11:54:00.389Z,13.71
2018-11-13T11:55:00.309Z,13.68
2018-11-13T11:56:00.272Z,13.50
2018-11-13T11:57:00.233Z,13.54
2018-11-13T11:58:00.202Z,13.60
2018-11-13T11:59:00.163Z,13.57
2018-11-13T12:00:00.125Z,13.60
2018-11-13T12:01:00.096Z,13.68
2018-11-13T12:02:00.091Z,13.71
2018-11-13T12:03:00.016Z,13.78
2018-11-13T12:03:59.975Z,13.79
2018-11-13T12:04:59.944Z,13.87
2018-11-13T12:05:59.900Z,13.81
2018-11-13T12:06:59.862Z,13.90
2018-11-13T12:07:59.837Z,13.13
2018-11-13T12:08:59.784Z,13.15
2018-11-13T12:09:59.755Z,13.16
2018-11-13T12:10:59.719Z,13.18
2018-11-13T12:11:59.838Z,13.18
2018-11-13T12:12:59.641Z,13.15
2018-11-13T12:13:59.599Z,13.15
2018-11-13T12:14:59.570Z,13.19
2018-11-13T12:15:59.526Z,13.16
2018-11-13T12:16:59.488Z,13.15
2018-11-13T12:17:59.459Z,13.27
2018-11-13T12:18:59.495Z,13.38
2018-11-13T12:19:59.389Z,13.27
2018-11-13T12:20:59.342Z,13.23
2018-11-13T12:21:59.308Z,13.39
2018-11-13T12:22:59.269Z,13.68
2018-11-13T12:23:59.231Z,13.72
2018-11-13T12:24:59.196Z,13.67
2018-11-13T12:25:59.218Z,13.74
2018-11-13T12:26:59.119Z,13.56
2018-11-13T12:27:59.080Z,13.41
2018-11-13T12:28:59.042Z,13.53
2018-11-13T12:29:59.011Z,13.81
2018-11-13T12:30:58.973Z,13.42
2018-11-13T12:31:58.934Z,13.90
2018-11-13T12:32:58.900Z,13.90
2018-11-13T12:33:58.857Z,13.93
2018-11-13T12:34:58.826Z,13.92
2018-11-13T12:35:58.789Z,14.00
2018-11-13T12:36:58.754Z,13.97
2018-11-13T12:37:58.709Z,13.41
2018-11-13T12:38:58.675Z,13.28
2018-11-13T12:39:58.636Z,13.41
2018-11-13T12:40:58.646Z,13.90
2018-11-13T12:41:58.566Z,13.95
2018-11-13T12:42:58.528Z,13.87
2018-11-13T12:43:58.490Z,14.00
2018-11-13T12:44:58.456Z,13.92
2018-11-13T12:45:58.413Z,13.95
2018-11-13T12:46:58.422Z,13.92
2018-11-13T12:47:58.340Z,13.99
2018-11-13T12:48:58.392Z,14.14
2018-11-13T12:49:58.274Z,14.22
2018-11-13T12:50:58.235Z,14.10
2018-11-13T12:51:58.192Z,14.08
2018-11-13T12:52:58.155Z,14.03
2018-11-13T12:53:58.475Z,14.04
2018-11-13T12:54:58.090Z,14.04
2018-11-13T12:55:58.088Z,14.00
2018-11-13T12:56:58.009Z,13.89
2018-11-13T12:57:58.146Z,14.03
2018-11-13T12:58:57.942Z,13.54
2018-11-13T12:59:57.895Z,14.04
2018-11-13T13:00:57.857Z,14.00
2018-11-13T13:01:57.831Z,13.93
2018-11-13T13:02:57.788Z,13.95
2018-11-13T13:03:57.749Z,13.93
2018-11-13T13:04:57.715Z,13.97
2018-11-13T13:05:57.672Z,13.92
2018-11-13T13:06:57.636Z,13.93
2018-11-13T13:07:57.600Z,14.05
2018-11-13T13:08:57.570Z,14.00
2018-11-13T13:09:57.522Z,14.00
2018-11-13T13:10:57.487Z,13.97
2018-11-13T13:11:57.449Z,13.97
2018-11-13T13:12:57.411Z,13.95
2018-11-13T13:13:57.381Z,14.11
2018-11-13T13:14:57.437Z,14.08
2018-11-13T13:15:57.303Z,13.39
2018-11-13T13:16:57.268Z,13.33
2018-11-13T13:17:57.225Z,13.33
2018-11-13T13:18:57.258Z,13.23
2018-11-13T13:19:57.161Z,13.18
2018-11-13T13:20:57.116Z,13.27
2018-11-13T13:21:57.087Z,13.33
2018-11-13T13:22:57.051Z,13.41
2018-11-13T13:23:57.004Z,13.20
2018-11-13T13:24:56.965Z,13.92
2018-11-13T13:25:57.050Z,13.38
2018-11-13T13:26:56.909Z,13.20
2018-11-13T13:27:56.859Z,13.83
2018-11-13T13:28:56.825Z,13.38
2018-11-13T13:29:56.780Z,13.37
2018-11-13T13:30:56.746Z,13.37
2018-11-13T13:31:56.790Z,13.95
2018-11-13T13:32:56.668Z,14.07
2018-11-13T13:33:56.638Z,14.11
2018-11-13T13:34:56.603Z,14.10
2018-11-13T13:35:56.562Z,13.72
2018-11-13T13:36:56.527Z,13.27
2018-11-13T13:37:56.485Z,13.30
2018-11-13T13:38:56.452Z,13.75
2018-11-13T13:39:56.413Z,13.23
2018-11-13T13:40:56.381Z,13.16
2018-11-13T13:41:56.336Z,13.59
2018-11-13T13:42:56.301Z,13.97
2018-11-13T13:43:56.262Z,13.97
2018-11-13T13:44:56.224Z,13.22
2018-11-13T13:45:56.194Z,13.19
2018-11-13T13:46:56.155Z,13.18
2018-11-13T13:47:56.117Z,13.85
2018-11-13T13:48:56.083Z,13.18
2018-11-13T13:49:56.039Z,13.33
2018-11-13T13:50:56.003Z,13.22
2018-11-13T13:51:55.965Z,13.25
2018-11-13T13:52:55.927Z,13.35
2018-11-13T13:53:56.083Z,13.28
2018-11-13T13:54:55.856Z,13.27
2018-11-13T13:55:55.816Z,13.33
2018-11-13T13:56:55.787Z,13.38
2018-11-13T13:57:55.749Z,13.42
2018-11-13T13:58:55.709Z,13.38
2018-11-13T13:59:55.885Z,13.37
2018-11-13T14:00:55.697Z,14.03
2018-11-13T14:01:55.593Z,13.46
2018-11-13T14:02:55.558Z,13.37
2018-11-13T14:03:55.526Z,13.31
2018-11-13T14:04:55.488Z,13.35
2018-11-13T14:05:55.494Z,13.23
2018-11-13T14:06:55.412Z,13.15
2018-11-13T14:07:55.375Z,13.22
2018-11-13T14:08:55.343Z,13.16
2018-11-13T14:09:55.301Z,13.04
2018-11-13T14:10:55.265Z,13.12
2018-11-13T14:11:55.228Z,13.16
2018-11-13T14:12:55.192Z,13.01
2018-11-13T14:13:55.147Z,12.87
2018-11-13T14:14:55.232Z,12.93
2018-11-13T14:15:55.083Z,12.98
2018-11-13T14:16:55.041Z,12.95
2018-11-13T14:17:55.033Z,13.31
2018-11-13T14:18:54.969Z,13.30
2018-11-13T14:19:54.929Z,12.85
2018-11-13T14:20:54.937Z,12.82
2018-11-13T14:21:54.852Z,12.75
2018-11-13T14:22:54.820Z,13.09
2018-11-13T14:23:54.778Z,12.67
2018-11-13T14:24:54.740Z,12.67
2018-11-13T14:25:54.709Z,13.25
2018-11-13T14:26:54.715Z,13.28
2018-11-13T14:27:54.628Z,13.38
2018-11-13T14:28:54.597Z,13.30
2018-11-13T14:29:54.556Z,13.38
2018-11-13T14:30:54.518Z,12.79
2018-11-13T14:31:54.481Z,12.78
2018-11-13T14:32:54.443Z,13.12
2018-11-13T14:33:54.402Z,13.37
2018-11-13T14:34:54.364Z,12.90
2018-11-13T14:35:54.329Z,12.72
2018-11-13T14:36:54.293Z,12.68
2018-11-13T14:37:54.250Z,12.58
2018-11-13T14:38:54.214Z,13.16
2018-11-13T14:39:54.177Z,13.16
2018-11-13T14:40:54.137Z,13.30
2018-11-13T14:41:54.106Z,13.16
2018-11-13T14:42:54.066Z,13.22
2018-11-13T14:43:54.026Z,13.23
2018-11-13T14:44:54.010Z,12.85
2018-11-13T14:45:53.955Z,12.62
2018-11-13T14:46:53.917Z,12.60
2018-11-13T14:47:53.878Z,12.45
2018-11-13T14:48:53.843Z,12.50
2018-11-13T14:49:53.799Z,12.47
2018-11-13T14:50:53.763Z,12.46
2018-11-13T14:51:53.727Z,12.53
2018-11-13T14:52:53.688Z,12.90
2018-11-13T14:53:53.654Z,12.46
2018-11-13T14:54:53.615Z,12.28
2018-11-13T14:55:53.575Z,12.42
2018-11-13T14:56:53.544Z,12.36
2018-11-13T14:57:53.497Z,12.40
2018-11-13T14:58:53.461Z,12.37
2018-11-13T14:59:53.426Z,12.31
2018-11-13T15:00:53.390Z,12.25
2018-11-13T15:01:53.357Z,12.35
2018-11-13T15:02:53.311Z,12.29
2018-11-13T15:03:53.276Z,12.31
2018-11-13T15:04:53.234Z,12.37
2018-11-13T15:05:53.201Z,12.62
2018-11-13T15:06:53.162Z,12.80
2018-11-13T15:07:53.164Z,12.87
2018-11-13T15:08:53.123Z,12.94
2018-11-13T15:09:53.054Z,12.67
2018-11-13T15:10:53.010Z,13.00
2018-11-13T15:11:52.970Z,12.93
2018-11-13T15:12:52.930Z,12.95
2018-11-13T15:13:52.899Z,12.95
2018-11-13T15:14:52.860Z,12.91
2018-11-13T15:15:52.817Z,12.94
2018-11-13T15:16:52.777Z,12.94
2018-11-13T15:17:52.745Z,12.86
2018-11-13T15:18:52.710Z,12.91
2018-11-13T15:19:52.668Z,12.93
2018-11-13T15:20:52.633Z,12.76
2018-11-13T15:21:52.587Z,12.24
2018-11-13T15:22:52.551Z,12.60
2018-11-13T15:23:52.513Z,12.53
2018-11-13T15:24:52.474Z,12.72
2018-11-13T15:25:52.440Z,12.68
2018-11-13T15:26:52.403Z,12.15
2018-11-13T15:27:52.363Z,12.64
2018-11-13T15:28:52.327Z,12.70
2018-11-13T15:29:52.284Z,12.67
2018-11-13T15:30:52.264Z,12.65
2018-11-13T15:31:52.210Z,12.67
2018-11-13T15:32:52.176Z,12.06
2018-11-13T15:33:52.131Z,12.46
2018-11-13T15:34:52.102Z,12.62
2018-11-13T15:35:52.058Z,12.64
2018-11-13T15:36:52.095Z,12.70
2018-11-13T15:37:51.988Z,12.62
2018-11-13T15:38:51.945Z,12.62
2018-11-13T15:39:51.906Z,12.62
2018-11-13T15:40:51.871Z,12.62
2018-11-13T15:41:51.826Z,12.60
2018-11-13T15:42:51.790Z,12.61
2018-11-13T15:43:51.752Z,12.46
2018-11-13T15:44:51.829Z,12.55
2018-11-13T15:45:51.679Z,12.47
2018-11-13T15:46:51.640Z,12.55
2018-11-13T15:47:51.599Z,12.53
2018-11-13T15:48:51.564Z,12.53
2018-11-13T15:49:51.530Z,12.50
2018-11-13T15:50:51.490Z,12.57
2018-11-13T15:51:51.503Z,12.53
2018-11-13T16:04:11.872Z,12.15
2018-11-13T16:05:11.800Z,12.18
2018-11-13T16:06:11.781Z,12.27
2018-11-13T16:07:11.721Z,12.20
2018-11-13T16:08:11.676Z,12.22
2018-11-13T16:09:11.635Z,12.20
2018-11-13T16:10:11.675Z,12.22
2018-11-13T16:11:11.557Z,12.22
2018-11-13T16:12:11.514Z,12.15
2018-11-13T16:13:11.474Z,12.24
2018-11-13T16:14:11.436Z,12.17
2018-11-13T16:15:11.498Z,12.09
2018-11-13T16:16:11.352Z,12.04
2018-11-13T16:17:11.312Z,11.97
2018-11-13T16:18:11.273Z,12.00
2018-11-13T16:19:11.240Z,11.88
2018-11-13T16:20:11.199Z,11.88
2018-11-13T16:21:11.169Z,11.88
2018-11-13T16:22:11.123Z,11.87
2018-11-13T16:23:11.079Z,11.87
2018-11-13T16:24:11.039Z,11.88
2018-11-13T16:25:11.002Z,11.83
2018-11-13T16:26:10.966Z,11.90
2018-11-13T16:27:10.922Z,11.88
2018-11-13T16:28:10.883Z,11.84
2018-11-13T16:29:10.955Z,11.83
2018-11-13T16:30:10.873Z,11.63
2018-11-13T16:31:10.774Z,11.84
2018-11-13T16:32:10.743Z,11.86
2018-11-13T16:33:10.692Z,11.86
2018-11-13T16:34:10.663Z,11.87
2018-11-13T16:35:10.612Z,11.99
2018-11-13T16:36:10.596Z,11.86
2018-11-13T16:37:10.543Z,11.99
2018-11-13T16:38:10.593Z,11.88
2018-11-13T16:39:10.476Z,11.81
2018-11-13T16:40:10.420Z,11.88
2018-11-13T16:41:19.073Z,11.95
2018-11-13T16:43:14.830Z,11.87
2018-11-13T16:44:14.741Z,11.86
2018-11-13T16:45:14.703Z,11.86
2018-11-13T16:46:14.660Z,11.83
2018-11-13T16:47:14.623Z,11.77
2018-11-13T16:48:14.691Z,11.75
2018-11-13T16:49:15.385Z,11.81
2018-11-13T16:50:14.510Z,11.81
2018-11-13T16:51:14.467Z,11.86
2018-11-13T16:52:14.429Z,11.87
2018-11-13T16:53:14.395Z,11.83
2018-11-13T16:54:14.380Z,11.86
2018-11-13T16:55:14.315Z,11.86
2018-11-13T16:56:14.275Z,11.94
2018-11-13T16:57:14.242Z,11.83
2018-11-13T16:58:14.222Z,11.86
2018-11-13T16:59:14.162Z,11.88
2018-11-13T17:00:14.132Z,11.81
2018-11-13T17:01:14.132Z,11.87
2018-11-13T17:02:14.065Z,11.86
2018-11-13T17:03:14.009Z,11.83
2018-11-13T17:04:13.966Z,11.78
2018-11-13T17:05:13.990Z,11.75
2018-11-13T17:06:13.985Z,11.72
2018-11-13T17:07:13.938Z,11.80
2018-11-13T17:08:13.811Z,11.75
2018-11-13T17:09:13.772Z,11.73
2018-11-13T17:10:13.733Z,11.70
2018-11-13T17:11:13.728Z,11.69
2018-11-13T17:12:13.658Z,11.50
2018-11-13T17:13:13.624Z,11.55
2018-11-13T17:14:13.604Z,11.54
2018-11-13T17:15:13.583Z,11.50
2018-11-13T17:16:13.516Z,11.43
2018-11-13T17:17:13.464Z,11.48
2018-11-13T17:18:13.726Z,11.35
2018-11-13T17:19:13.385Z,11.29
2018-11-13T17:20:13.372Z,11.27
2018-11-13T17:21:13.318Z,11.35
2018-11-13T17:22:13.292Z,11.14
2018-11-13T17:23:13.231Z,11.11
2018-11-13T17:24:13.194Z,11.14
2018-11-13T17:25:13.159Z,11.12
2018-11-13T17:26:13.123Z,10.94
2018-11-13T17:27:13.100Z,11.07
2018-11-13T17:28:13.038Z,11.00
2018-11-13T17:29:13.048Z,11.07
2018-11-13T17:30:12.988Z,10.96
2018-11-13T17:31:12.922Z,11.04
2018-11-13T17:32:12.884Z,10.93
2018-11-13T17:33:12.855Z,10.97
2018-11-13T17:34:12.810Z,10.96
2018-11-13T17:35:12.769Z,10.96
2018-11-13T17:36:12.758Z,10.87
2018-11-13T17:37:12.696Z,10.97
2018-11-13T17:38:12.765Z,10.93
2018-11-13T17:39:12.641Z,11.02
2018-11-13T17:40:12.580Z,10.87
2018-11-13T17:41:12.533Z,11.02
2018-11-13T17:42:12.494Z,10.84
2018-11-13T17:43:12.487Z,10.89
2018-11-13T17:44:12.483Z,10.78
2018-11-13T17:45:12.384Z,10.86
2018-11-13T17:46:12.356Z,10.71
2018-11-13T17:47:12.304Z,10.76
2018-11-13T17:48:12.262Z,10.71
2018-11-13T17:49:12.224Z,10.68
2018-11-13T17:50:12.184Z,10.71
2018-11-13T17:51:12.145Z,10.69
2018-11-13T17:52:12.111Z,10.68
2018-11-13T17:53:12.072Z,10.69
2018-11-13T17:54:12.026Z,10.78
2018-11-13T17:55:11.989Z,10.68
2018-11-13T17:56:11.953Z,10.71
2018-11-13T17:57:11.916Z,10.71
2018-11-13T17:58:11.878Z,10.71
2018-11-13T17:59:11.841Z,10.67
2018-11-13T18:00:11.794Z,10.74
2018-11-13T18:01:11.754Z,10.72
2018-11-13T18:02:11.731Z,10.68
2018-11-13T18:03:11.702Z,10.76
2018-11-13T18:04:11.640Z,10.74
2018-11-13T18:05:11.604Z,10.74
2018-11-13T18:06:11.565Z,10.74
2018-11-13T18:07:11.524Z,10.20
2018-11-13T18:08:11.482Z,10.74
2018-11-13T18:09:11.455Z,10.74
2018-11-13T18:10:11.408Z,10.71
2018-11-13T18:11:11.487Z,10.76
2018-11-13T18:12:11.326Z,10.81
2018-11-13T18:13:11.288Z,10.79
2018-11-13T18:14:11.387Z,10.84
2018-11-13T18:15:11.209Z,10.81
2018-11-13T18:16:11.206Z,10.86
2018-11-13T18:17:11.201Z,10.99
2018-11-13T18:18:11.097Z,10.94
2018-11-13T18:19:11.058Z,10.97
2018-11-13T18:20:11.013Z,10.94
2018-11-13T18:21:10.973Z,10.93
2018-11-13T18:22:11.092Z,10.94
2018-11-13T18:23:10.900Z,10.89
2018-11-13T18:24:10.862Z,10.94
2018-11-13T18:25:10.822Z,10.94
2018-11-13T18:26:10.777Z,11.02
2018-11-13T18:27:10.739Z,10.97
2018-11-13T18:28:10.734Z,10.48
2018-11-13T18:29:10.668Z,10.23
2018-11-13T18:30:10.629Z,10.17
2018-11-13T18:31:10.584Z,10.10
2018-11-13T18:32:10.562Z,10.10
2018-11-13T18:33:10.513Z,10.09
2018-11-13T18:34:10.640Z,10.04
2018-11-13T18:35:10.444Z,10.16
2018-11-13T18:36:10.525Z,10.68
2018-11-13T18:37:10.373Z,10.19
2018-11-13T18:38:10.445Z,10.79
2018-11-13T18:39:10.523Z,10.86
2018-11-13T18:40:10.282Z,10.89
2018-11-13T18:41:10.218Z,10.93
2018-11-13T18:42:10.184Z,10.93
2018-11-13T18:43:10.125Z,10.94
2018-11-13T18:44:10.090Z,10.93
2018-11-13T18:45:10.141Z,10.93
2018-11-13T18:46:10.003Z,10.90
2018-11-13T18:47:09.987Z,10.89
2018-11-13T18:48:09.924Z,10.81
2018-11-13T18:49:09.925Z,10.87
2018-11-13T18:50:09.952Z,10.57
2018-11-13T18:51:09.879Z,10.10
2018-11-13T18:52:09.789Z,10.54
2018-11-13T18:53:09.755Z,10.84
2018-11-13T18:54:09.729Z,10.86
2018-11-13T18:55:09.661Z,10.86
2018-11-13T18:56:09.721Z,10.86
2018-11-13T18:57:09.597Z,10.87
2018-11-13T18:58:09.544Z,10.87
2018-11-13T18:59:09.629Z,10.86
2018-11-13T19:00:09.508Z,10.86
2018-11-13T19:01:09.499Z,10.84
2018-11-13T19:02:09.420Z,10.79
2018-11-13T19:03:09.349Z,10.84
2018-11-13T19:04:09.319Z,10.86
2018-11-13T19:05:09.321Z,10.93
2018-11-13T19:06:09.238Z,10.99
2018-11-13T19:07:09.257Z,10.96
2018-11-13T19:08:09.161Z,10.99
2018-11-13T19:09:09.132Z,10.96
2018-11-13T19:10:09.125Z,10.87
2018-11-13T19:11:09.058Z,11.05
2018-11-13T19:12:09.098Z,10.90
2018-11-13T19:13:09.030Z,10.97
2018-11-13T19:14:09.184Z,10.25
2018-11-13T19:15:08.952Z,10.13
2018-11-13T19:16:08.820Z,10.16
2018-11-13T19:17:08.823Z,10.12
2018-11-13T19:18:08.830Z,10.05
2018-11-13T19:19:08.751Z,10.10
2018-11-13T19:20:08.805Z,10.04
2018-11-13T19:21:08.669Z,10.67
2018-11-13T19:22:08.658Z,10.71
2018-11-13T19:23:08.616Z,10.72
2018-11-13T19:24:08.581Z,10.74
2018-11-13T19:25:08.524Z,10.82
2018-11-13T19:26:08.468Z,10.84
2018-11-13T19:27:08.434Z,10.86
2018-11-13T19:28:08.430Z,10.82
2018-11-13T19:29:08.314Z,10.81
2018-11-13T19:30:08.371Z,10.74
2018-11-13T19:31:08.329Z,10.72
2018-11-13T19:32:08.210Z,10.74
2018-11-13T19:33:08.194Z,10.69
2018-11-13T19:34:08.140Z,10.71
2018-11-13T19:38:06.364Z,10.63
2018-11-13T19:38:31.154Z,10.64
2018-11-13T19:39:31.107Z,10.67
2018-11-13T19:40:31.136Z,10.51
2018-11-13T19:41:31.024Z,10.53
2018-11-13T19:42:30.984Z,10.40
2018-11-13T19:43:30.946Z,10.42
2018-11-13T19:46:03.222Z,10.40
2018-11-13T19:47:03.079Z,10.35
2018-11-13T19:48:02.995Z,10.33
2018-11-13T19:49:02.990Z,10.35
2018-11-13T19:50:02.915Z,10.31
2018-11-13T19:51:02.869Z,10.33
2018-11-13T19:52:02.834Z,10.38
2018-11-13T19:53:02.797Z,10.37
2018-11-13T19:54:02.879Z,10.38
2018-11-13T19:55:02.721Z,10.28
2018-11-13T19:56:02.693Z,10.23
2018-11-13T19:57:02.648Z,10.31
2018-11-13T19:58:02.677Z,10.31
2018-11-13T19:59:02.559Z,10.28
2018-11-13T20:00:02.525Z,10.38
2018-11-13T20:01:02.545Z,10.38
2018-11-13T20:02:02.470Z,10.37
2018-11-13T20:03:02.419Z,10.33
2018-11-13T20:04:02.549Z,10.31
2018-11-13T20:05:02.353Z,10.28
2018-11-13T20:06:02.298Z,10.37
2018-11-13T20:07:02.256Z,10.41
2018-11-13T20:08:02.242Z,10.34
2018-11-13T20:09:02.185Z,10.34
2018-11-13T20:10:02.193Z,10.38
2018-11-13T20:11:02.114Z,10.37
2018-11-13T20:12:02.062Z,10.31
2018-11-13T20:13:02.042Z,10.22
2018-11-13T20:14:01.986Z,10.13
2018-11-13T20:15:01.930Z,10.30
2018-11-13T20:16:02.026Z,10.31
2018-11-13T20:17:01.978Z,10.20
2018-11-13T20:18:01.833Z,10.25
2018-11-13T20:19:01.804Z,10.30
2018-11-13T20:20:01.769Z,10.38
2018-11-13T20:21:01.706Z,10.44
2018-11-13T20:22:01.661Z,10.46
2018-11-13T20:23:01.633Z,10.38
2018-11-13T20:24:01.574Z,10.38
2018-11-13T20:25:01.588Z,10.38
2018-11-13T20:26:01.525Z,10.26
2018-11-13T20:27:01.473Z,10.26
2018-11-13T20:28:01.439Z,10.41
2018-11-13T20:29:01.393Z,10.38
2018-11-13T20:30:01.335Z,10.44
2018-11-13T20:31:01.334Z,9.79
2018-11-13T20:32:01.280Z,9.76
2018-11-13T20:33:01.240Z,9.56
2018-11-13T20:34:01.195Z,10.40
2018-11-13T20:35:01.135Z,9.89
2018-11-13T20:36:01.105Z,9.76
2018-11-13T20:37:01.081Z,9.65
2018-11-13T20:38:01.033Z,9.66
2018-11-13T20:39:01.012Z,9.64
2018-11-13T20:40:00.949Z,9.69
2018-11-13T20:41:00.917Z,9.59
2018-11-13T20:42:00.889Z,9.55
2018-11-13T20:43:00.851Z,9.56
2018-11-13T20:44:00.802Z,9.62
2018-11-13T20:45:00.757Z,9.59
2018-11-13T20:46:00.727Z,9.56
2018-11-13T20:47:00.665Z,9.64
2018-11-13T20:48:00.657Z,9.61
2018-11-13T20:49:00.610Z,9.56
2018-11-13T20:50:00.561Z,9.54
2018-11-13T20:51:00.516Z,9.65
2018-11-13T20:52:00.473Z,9.59
2018-11-13T20:53:00.458Z,10.07
2018-11-13T20:54:00.426Z,10.23
2018-11-13T20:55:00.442Z,10.25
2018-11-13T20:56:00.329Z,10.34
2018-11-13T20:57:00.281Z,10.38
2018-11-13T20:58:00.257Z,10.38
2018-11-13T20:59:00.205Z,10.40
2018-11-13T21:00:00.176Z,10.44
2018-11-13T21:01:00.227Z,10.38
2018-11-13T21:02:00.181Z,10.31
2018-11-13T21:03:00.035Z,10.38
2018-11-13T21:04:00.011Z,10.46
2018-11-13T21:04:59.957Z,10.37
2018-11-13T21:05:59.983Z,10.40
2018-11-13T21:06:59.908Z,10.41
2018-11-13T21:07:59.856Z,10.38
2018-11-13T21:08:59.832Z,10.42
2018-11-13T21:09:59.768Z,10.26
2018-11-13T21:11:00.231Z,10.37
2018-11-13T21:11:59.763Z,10.46
2018-11-13T21:12:59.656Z,10.41
2018-11-13T21:13:59.636Z,10.38
2018-11-13T21:14:59.580Z,10.37
2018-11-13T21:15:59.544Z,10.40
2018-11-13T21:16:59.632Z,10.40
2018-11-13T21:17:59.448Z,10.41
2018-11-13T21:18:59.420Z,10.41
2018-11-13T21:19:59.387Z,10.44
2018-11-13T21:20:59.336Z,10.41
2018-11-13T21:21:59.301Z,10.42
2018-11-13T21:22:59.261Z,10.40
2018-11-13T21:23:59.243Z,10.48
2018-11-13T21:24:59.184Z,10.33
2018-11-13T21:25:59.133Z,10.31
2018-11-13T21:26:59.093Z,10.26
2018-11-13T21:27:59.067Z,10.35
2018-11-13T21:28:59.068Z,10.25
2018-11-13T21:29:59.072Z,10.25
2018-11-13T21:30:59.010Z,10.25
2018-11-13T21:31:58.912Z,10.25
2018-11-13T21:32:58.920Z,10.23
2018-11-13T21:33:58.841Z,10.25
2018-11-13T21:34:58.783Z,10.31
2018-11-13T21:35:58.776Z,10.28
2018-11-13T21:36:58.766Z,10.26
2018-11-13T21:37:58.678Z,10.23
2018-11-13T21:38:58.620Z,10.23
2018-11-13T21:39:58.593Z,10.22
2018-11-13T21:40:58.552Z,10.15
2018-11-13T21:41:58.518Z,10.19
2018-11-13T21:42:58.476Z,10.17
2018-11-13T21:43:58.427Z,10.15
2018-11-13T21:44:58.396Z,10.15
2018-11-13T21:45:58.351Z,10.23
2018-11-13T21:46:59.400Z,10.19
2018-11-13T21:47:58.283Z,10.13
2018-11-13T21:48:58.240Z,10.17
2018-11-13T21:49:58.278Z,10.16
2018-11-13T21:50:58.159Z,10.17
2018-11-13T21:51:58.117Z,10.15
2018-11-13T21:52:58.088Z,10.25
2018-11-13T21:53:58.046Z,10.15
2018-11-13T21:54:58.004Z,10.13
2018-11-13T21:55:57.938Z,10.15
2018-11-13T21:56:57.913Z,10.17
2018-11-13T21:57:57.879Z,10.25
2018-11-13T21:58:57.946Z,10.22
2018-11-13T21:59:57.785Z,10.28
2018-11-13T22:00:57.763Z,10.23
2018-11-13T22:01:57.709Z,10.33
2018-11-13T22:02:57.693Z,10.35
2018-11-13T22:03:57.786Z,10.22
2018-11-13T22:04:57.601Z,10.35
2018-11-13T22:05:57.832Z,10.28
2018-11-13T22:06:57.510Z,10.22
2018-11-13T22:07:57.493Z,10.28
2018-11-13T22:20:43.614Z,9.95
2018-11-13T22:21:43.047Z,10.04
2018-11-13T22:22:43.001Z,10.01
2018-11-13T22:23:42.954Z,10.04
2018-11-13T22:24:42.919Z,10.10
2018-11-13T22:25:42.874Z,10.04
2018-11-13T22:26:42.972Z,10.12
2018-11-13T22:27:42.942Z,10.07
2018-11-13T22:28:42.868Z,10.09
2018-11-13T22:29:42.718Z,10.02
2018-11-13T22:30:42.679Z,10.13
2018-11-13T22:31:42.629Z,10.07
2018-11-13T22:32:42.602Z,10.07
2018-11-13T22:33:42.546Z,10.12
2018-11-13T22:34:42.552Z,10.12
2018-11-13T22:35:42.472Z,10.07
2018-11-13T22:36:42.433Z,10.04
2018-11-13T22:37:42.396Z,10.04
2018-11-13T22:38:42.410Z,10.13
2018-11-13T22:39:42.327Z,10.05
2018-11-13T22:40:42.269Z,10.07
2018-11-13T22:41:42.236Z,10.09
2018-11-13T22:42:42.193Z,10.04
2018-11-13T22:43:42.158Z,10.12
2018-11-13T22:44:42.101Z,10.15
2018-11-13T22:45:42.071Z,10.05
2018-11-13T22:46:42.037Z,10.07
2018-11-13T22:47:41.991Z,10.09
2018-11-13T22:48:41.935Z,10.12
2018-11-13T22:49:41.917Z,10.05
2018-11-13T22:50:41.896Z,10.09
2018-11-13T22:51:41.820Z,9.97
2018-11-13T22:52:41.797Z,10.15
2018-11-13T22:53:41.755Z,10.10
2018-11-13T22:54:41.737Z,10.07
2018-11-13T22:55:41.681Z,10.09
2018-11-13T22:56:41.627Z,10.10
2018-11-13T22:57:41.647Z,9.99
2018-11-13T22:58:41.631Z,10.07
2018-11-13T22:59:41.510Z,9.98
2018-11-13T23:00:41.486Z,10.09
2018-11-13T23:01:41.425Z,10.10
2018-11-13T23:02:41.396Z,10.16
2018-11-13T23:03:41.398Z,10.05
2018-11-13T23:04:41.328Z,10.10
2018-11-13T23:05:41.271Z,10.09
2018-11-13T23:06:41.261Z,10.09
2018-11-13T23:07:41.204Z,10.15
2018-11-13T23:08:41.158Z,10.10
2018-11-13T23:09:41.130Z,10.13
2018-11-13T23:10:41.059Z,10.20
2018-11-13T23:11:41.022Z,10.15
2018-11-13T23:12:40.983Z,10.09